• Join FlightAware (Why Join?)
  • Login
  • US Flag 
07:11PM EDT


 

Airport Tracker/Info


-or-


 

Live Flight TrackerFlight Track Log ✈ CSZ9911 ✈ 31-Jan-2014 ✈ ZGSZ / SZX - ZUMY / MIG

Flight Track Log - Related Links

Times and Time Zones

All times are in EST time to prevent confusion due to time zone crossing. See the CSZ9911 flight status page for this flight to view local times or setup timezone preferences in your user account.

Time Position Orientation Groundspeed Altitude Reporting Facility
EST Latitude Longitude Course Direction KTS MPH feet Rate Location/Type
07:14PM 23.3925 113.1075 319° Northwest  Level Estimated
07:15PM 23.4608 113.0430 319° Northwest  Level Estimated
07:16PM 23.5291 112.9785 319° Northwest  Level Estimated
07:17PM 23.5973 112.9138 319° Northwest  Level Estimated
07:18PM 23.6655 112.8492 319° Northwest  Level Estimated
07:19PM 23.7337 112.7844 319° Northwest  Level Estimated
07:20PM 23.8019 112.7196 319° Northwest  Level Estimated
07:21PM 23.8700 112.6547 319° Northwest  Level Estimated
07:22PM 23.9381 112.5898 319° Northwest  Level Estimated
07:23PM 24.0062 112.5248 319° Northwest  Level Estimated
07:24PM 24.0743 112.4597 319° Northwest  Level Estimated
07:25PM 24.1423 112.3945 319° Northwest  Level Estimated
07:26PM 24.2103 112.3293 319° Northwest  Level Estimated
07:27PM 24.2783 112.2640 319° Northwest  Level Estimated
07:28PM 24.3462 112.1986 319° Northwest  Level Estimated
07:29PM 24.4141 112.1332 319° Northwest  Level Estimated
07:30PM 24.4820 112.0677 319° Northwest  Level Estimated
07:31PM 24.5499 112.0021 319° Northwest  Level Estimated
07:32PM 24.6177 111.9364 319° Northwest  Level Estimated
07:33PM 24.6855 111.8707 319° Northwest  Level Estimated
07:34PM 24.7533 111.8049 319° Northwest  Level Estimated
07:35PM 24.8211 111.7391 319° Northwest  Level Estimated
07:36PM 24.8888 111.6731 319° Northwest  Level Estimated
07:37PM 24.9565 111.6071 319° Northwest  Level Estimated
07:38PM 25.0241 111.5410 318° Northwest  Level Estimated
07:39PM 25.0917 111.4749 318° Northwest  Level Estimated
07:40PM 25.1593 111.4087 318° Northwest  Level Estimated
07:41PM 25.2269 111.3423 318° Northwest  Level Estimated
07:42PM 25.2945 111.2760 318° Northwest  Level Estimated
07:43PM 25.3620 111.2095 318° Northwest  Level Estimated
07:44PM 25.4294 111.1430 318° Northwest  Level Estimated
07:45PM 25.4969 111.0764 318° Northwest  Level Estimated
07:46PM 25.5643 111.0097 318° Northwest  Level Estimated
07:47PM 25.6317 110.9430 318° Northwest  Level Estimated
07:48PM 25.6991 110.8762 318° Northwest  Level Estimated
07:49PM 25.7664 110.8093 318° Northwest  Level Estimated
07:50PM 25.8337 110.7423 318° Northwest  Level Estimated
07:51PM 25.9010 110.6752 318° Northwest  Level Estimated
07:52PM 25.9682 110.6081 318° Northwest  Level Estimated
07:53PM 26.0354 110.5409 318° Northwest  Level Estimated
07:54PM 26.1026 110.4736 318° Northwest  Level Estimated
07:55PM 26.1698 110.4063 318° Northwest  Level Estimated
07:56PM 26.2369 110.3389 318° Northwest  Level Estimated
07:57PM 26.3039 110.2713 318° Northwest  Level Estimated
07:58PM 26.3710 110.2038 318° Northwest  Level Estimated
07:59PM 26.4380 110.1361 318° Northwest  Level Estimated
08:00PM 26.5050 110.0683 318° Northwest  Level Estimated
08:01PM 26.5720 110.0005 318° Northwest  Level Estimated
08:02PM 26.6389 109.9326 318° Northwest  Level Estimated
08:03PM 26.7058 109.8646 318° Northwest  Level Estimated
08:04PM 26.7726 109.7965 318° Northwest  Level Estimated
08:05PM 26.8395 109.7284 318° Northwest  Level Estimated
08:06PM 26.9062 109.6602 318° Northwest  Level Estimated
08:07PM 26.9730 109.5919 318° Northwest  Level Estimated
08:08PM 27.0397 109.5235 318° Northwest  Level Estimated
08:09PM 27.1064 109.4550 318° Northwest  Level Estimated
08:10PM 27.1731 109.3864 318° Northwest  Level Estimated
08:11PM 27.2397 109.3178 318° Northwest  Level Estimated
08:12PM 27.3063 109.2491 317° Northwest  Level Estimated
08:13PM 27.3729 109.1803 317° Northwest  Level Estimated
08:14PM 27.4394 109.1114 317° Northwest  Level Estimated
08:15PM 27.5059 109.0425 317° Northwest  Level Estimated
08:16PM 27.5723 108.9734 317° Northwest  Level Estimated
08:17PM 27.6388 108.9043 317° Northwest  Level Estimated
08:18PM 27.7052 108.8351 317° Northwest  Level Estimated
08:19PM 27.7715 108.7658 317° Northwest  Level Estimated
08:20PM 27.8378 108.6964 317° Northwest  Level Estimated
08:21PM 27.9041 108.6269 317° Northwest  Level Estimated
08:22PM 27.9704 108.5574 317° Northwest  Level Estimated
08:23PM 28.0366 108.4877 317° Northwest  Level Estimated
08:24PM 28.1028 108.4180 317° Northwest  Level Estimated
08:25PM 28.1689 108.3482 317° Northwest  Level Estimated
08:26PM 28.2350 108.2783 317° Northwest  Level Estimated
08:27PM 28.3011 108.2083 317° Northwest  Level Estimated
08:28PM 28.3672 108.1383 317° Northwest  Level Estimated
08:29PM 28.4332 108.0681 317° Northwest  Level Estimated
08:30PM 28.4991 107.9978 317° Northwest  Level Estimated
08:31PM 28.5651 107.9275 317° Northwest  Level Estimated
08:32PM 28.6310 107.8571 317° Northwest  Level Estimated
08:33PM 28.6968 107.7866 317° Northwest  Level Estimated
08:34PM 28.7626 107.7160 317° Northwest  Level Estimated
08:35PM 28.8284 107.6453 317° Northwest  Level Estimated
08:36PM 28.8942 107.5745 317° Northwest  Level Estimated
08:37PM 28.9599 107.5036 317° Northwest  Level Estimated
08:38PM 29.0256 107.4327 317° Northwest  Level Estimated
08:39PM 29.0912 107.3616 317° Northwest  Level Estimated
08:40PM 29.1568 107.2905 317° Northwest  Level Estimated
08:41PM 29.2223 107.2193 317° Northwest  Level Estimated
08:42PM 29.2879 107.1479 316° Northwest  Level Estimated
08:43PM 29.3534 107.0765 316° Northwest  Level Estimated
08:44PM 29.4188 107.0050 316° Northwest  Level Estimated
08:45PM 29.4842 106.9334 316° Northwest  Level Estimated
08:46PM 29.5496 106.8618 316° Northwest  Level Estimated
08:47PM 29.6149 106.7900 316° Northwest  Level Estimated
08:48PM 29.6802 106.7181 316° Northwest  Level Estimated
08:49PM 29.7455 106.6461 316° Northwest  Level Estimated
08:50PM 29.8107 106.5741 316° Northwest  Level Estimated
08:51PM 29.8759 106.5019 316° Northwest  Level Estimated
08:52PM 29.9410 106.4297 316° Northwest  Level Estimated
08:53PM 30.0061 106.3573 316° Northwest  Level Estimated
08:54PM 30.0712 106.2849 316° Northwest  Level Estimated
08:55PM 30.1362 106.2124 316° Northwest  Level Estimated
08:56PM 30.2012 106.1397 316° Northwest  Level Estimated
08:57PM 30.2661 106.0670 316° Northwest  Level Estimated
08:58PM 30.3310 105.9942 316° Northwest  Level Estimated
08:59PM 30.3959 105.9213 316° Northwest  Level Estimated
09:00PM 30.4607 105.8483 316° Northwest  Level Estimated
09:01PM 30.5255 105.7752 316° Northwest  Level Estimated
09:02PM 30.5902 105.7020 316° Northwest  Level Estimated
09:03PM 30.6549 105.6286 316° Northwest  Level Estimated
09:04PM 30.7195 105.5552 316° Northwest  Level Estimated
09:05PM 30.7842 105.4817 316° Northwest  Level Estimated
09:06PM 30.8487 105.4081 316° Northwest  Level Estimated
09:07PM 30.9133 105.3344 316° Northwest  Level Estimated
09:08PM 30.9778 105.2606 316° Northwest  Level Estimated
09:09PM 31.0422 105.1867 316° Northwest  Level Estimated
09:10PM 31.1066 105.1127 315° West  Level Estimated
09:11PM 31.1709 105.0386 315° West  Level Estimated
09:12PM 31.2353 104.9644 315° West  Level Estimated
09:13PM 31.2995 104.8901 315° West  Level Estimated
09:14PM 31.3638 104.8157 315° West  Level Estimated
09:15PM 31.4280 104.7412 315° West  Level Estimated
09:16PM 31.4281 104.7411 316° Northwest  Level Estimated
09:17PM 31.4281 104.7411 168° South  Level Estimated
09:18PM 31.4281 104.7411 168° South  Level Estimated
09:19PM 31.4281 104.7411 168° South  Level Estimated
09:20PM 31.4281 104.7411 168° South  Level Estimated
09:21PM 31.4281 104.7411 168° South  Level Estimated
09:22PM 31.4281 104.7411 168° South  Level Estimated
09:23PM 31.4281 104.7411 168° South  Level Estimated
09:24PM 31.4281 104.7411 168° South  Level Estimated
09:25PM 31.4281 104.7411 168° South  Level Estimated
09:26PM 31.4281 104.7411 168° South  Level Estimated
09:27PM 31.4281 104.7411 168° South  Level Estimated
09:28PM 31.4281 104.7411 168° South  Level Estimated
09:29PM 31.4281 104.7411 168° South  Level Estimated
09:30PM 31.4281 104.7411 168° South  Level Estimated
09:31PM 31.4281 104.7411 168° South  Level Estimated